Terminal Aerodrome Forecast
Issued by NWS Atlanta, GA

Home | Current Version | Previous Version | Text Only | Print | Product List | Glossary On
Versions: 1 2 3 4 5 6 7 8 9 10 11 12 13 14 15 16 17 18 19 20 21 22 23 24 25 26 27 28 29 30 31 32 33 34 35 36 37
916
FTUS42 KFFC 251930 AAA
TAFAHN
TAF AMD
KAHN 251930Z 2520/2618 29014G25KT P6SM SKC
     FM260000 29010KT P6SM SKC
     FM260900 31005KT P6SM SKC
     FM261600 02004KT P6SM SKC=

USA.gov is the U.S. government's official web portal to all federal, state and local government web resources and services.